KSET

Details ICAO KSET
Name St Charles Co Smartt
Region United States
Timezone America/Chicago (UTC-6.0)
Plans Departing 13
Arriving 5
Stats Elevation 436 ft / 133 m (AMSL)
Location 38.930320° -90.429536°
Runways 2
Magnetic Variation 1.391° W
Sunrise 2017-12-11 13:11:56 UTC / 2017-12-11 07:11:56 Local
Sunset 2017-12-11 22:41:08 UTC / 2017-12-11 16:41:08 Local
Advertisement - Login to hide

Runways

ID Width Length Bearing (true) Bearing (mag) Surface Threshold Offset Overrun Length
09 75 ft / 23 m 1,996 ft / 608 m 90.72° 92.11° Asphalt 0 ft / 0 m 0 ft / 0 m
18 75 ft / 23 m 3,807 ft / 1,161 m 180.69° 182.08° Asphalt 0 ft / 0 m 0 ft / 0 m
27 75 ft / 23 m 1,996 ft / 608 m 270.73° 272.12° Asphalt 0 ft / 0 m 0 ft / 0 m
36 75 ft / 23 m 3,807 ft / 1,161 m 0.69° 2.08° Asphalt 0 ft / 0 m 0 ft / 0 m

Map

Weather


0- 5 10 15 20 25 30 35+ Temperature / ° C

Clouds and Precipitation
Forecast for 2017-12-11 18:00 UTC. Updated 27 minutes ago

Ground ~20,000 ft ~40,000 ft Winds

METAR

KSET 111654Z AUTO 24016KT 10SM CLR 11/M05 A2980 RMK AO2 SLP093 T01111050

TAF

Not found

Frequencies

Recorded 118.07 MHz ASOS
Clearance 121.60 MHz ST LOUIS CLNC DEL
Unicom 122.70 MHz CTAF
Approach 124.20 MHz ST LOUIS APP/DEP
Warning: Do not use this data for real-world aviation or navigation. No guarantee of current accuracy is given.